Ardenvoir, WA

9:38 PM PDT on September 02, 2014 (GMT -0700)
KWAENTIA4 | Change Station
CLOSE
Current Station
Personal Weather Station
Location: Entiat, WA
Elevation: 1729 ft
Nearby Weather Stations

Elev 1729 ft 47.89 °N, 120.44 °W | Updated 13 seconds ago

Partly Cloudy
Partly Cloudy
48.6 °F
Feels Like 49 °F
N
0.0
Wind Variable Wind from East
Gusts 0.0 mph

Today
High -- | Low -- °F
--% Chance of Precip.
Yesterday
High -- | Low -- °F
Precip. -- in
6:21 AM 7:39 PM
First Quarter, 58% visible
Pressure 29.70 in
Visibility 10.0 miles
Clouds Few 8500 ft
Windchill 49 °F
Dew Point 46 °F
Humidity 89%
Rainfall 0.08 in
Snow Depth Not available.
UV 0 out of 12
Pollen 4.30 out of 12
Air Quality Not available.
Flu Activity Not available.
METAR KEAT 030355Z AUTO 29019G26KT 10SM FEW085 18/03 A2972 RMK AO2 PK WND 29026/0355 SLP058 T01830033

More Conditions Fewer Conditions

Pressure 29.70 in
Visibility 10.0 miles
Clouds Few 8500 ft
Windchill 49 °F
Dew Point 46 °F
Humidity 89%
Rainfall 0.08 in
Snow Depth Not available.
UV 0 out of 12
Pollen 4.30 out of 12
Air Quality Not available.
Flu Activity Not available.
METAR KEAT 030355Z AUTO 29019G26KT 10SM FEW085 18/03 A2972 RMK AO2 PK WND 29026/0355 SLP058 T01830033

More Conditions Fewer Conditions

10-Day Weather Forecast

Almanac

Astronomy

Sep. 02, 2014 Rise Set
Actual Time 6:21 AM PDT 7:39 PM PDT
Civil Twilight 5:49 AM PDT 8:11 PM PDT
Nautical Twilight 5:10 AM PDT 8:50 PM PDT
Astronomical Twilight 4:29 AM PDT 9:31 PM PDT
Moon 2:41 PM PDT (9/2) No Moon Set
Length of Visible Light 14h 22m
Length of Day
13h 18m
Tomorrow will be 3m 20s shorter.
First Quarter, 58% of the Moon is Illuminated
Sep 3
First Quarter
Sep 8
Full
Sep 15
Last Quarter
Sep 24
New
Oct 1
First Quarter

Today's Extremes

State Highs State Lows

Community

WunderPhotos

Upload Photos

1,749,870 photos uploaded!

Nearby

Snow Depth

Station Depth Elevation
Blewett Pass 0 in 4270 ft
Upper Wheeler 0 in 4400 ft
Stevens Pass 0 in 4070 ft
Grouse Camp 0 in 5380 ft
Trough 0 in 5300 ft

Earthquake Activity

City Distance Mag. Time & Date
No recent earthquake activity has been reported nearby.
Minimum magnitude displayed is 2.5.

Coastal Water Temperatures

Place Temperature
No Stations Reporting

Nearby Weather Stations